sensor_id;sensor_type;location;lat;lon;timestamp;temperature;humidity
16313;DHT22;8265;52.622;13.296;2022-09-09T00:01:28;14.90;99.90
16313;DHT22;8265;52.622;13.296;2022-09-09T00:06:49;14.70;99.90
16313;DHT22;8265;52.622;13.296;2022-09-09T00:12:11;14.50;99.90
16313;DHT22;8265;52.622;13.296;2022-09-09T00:17:34;14.40;99.90
16313;DHT22;8265;52.622;13.296;2022-09-09T00:22:51;14.50;99.90
16313;DHT22;8265;52.622;13.296;2022-09-09T00:28:13;14.30;99.90
16313;DHT22;8265;52.622;13.296;2022-09-09T00:33:31;14.30;99.90
16313;DHT22;8265;52.622;13.296;2022-09-09T00:38:55;14.10;99.90
16313;DHT22;8265;52.622;13.296;2022-09-09T00:44:17;14.30;99.90
16313;DHT22;8265;52.622;13.296;2022-09-09T00:49:39;14.30;99.90
16313;DHT22;8265;52.622;13.296;2022-09-09T00:54:57;14.20;99.90
16313;DHT22;8265;52.622;13.296;2022-09-09T01:00:21;14.10;99.90
16313;DHT22;8265;52.622;13.296;2022-09-09T01:05:40;14.10;99.90
16313;DHT22;8265;52.622;13.296;2022-09-09T01:10:58;14.10;99.90
16313;DHT22;8265;52.622;13.296;2022-09-09T01:16:19;14.10;99.90
16313;DHT22;8265;52.622;13.296;2022-09-09T01:21:42;14.10;99.90
16313;DHT22;8265;52.622;13.296;2022-09-09T01:27:02;14.00;99.90
16313;DHT22;8265;52.622;13.296;2022-09-09T01:32:42;14.10;99.90
16313;DHT22;8265;52.622;13.296;2022-09-09T01:37:43;14.20;99.90
16313;DHT22;8265;52.622;13.296;2022-09-09T01:43:04;14.20;99.90
16313;DHT22;8265;52.622;13.296;2022-09-09T01:48:25;14.30;99.90
16313;DHT22;8265;52.622;13.296;2022-09-09T01:53:46;14.20;99.90
16313;DHT22;8265;52.622;13.296;2022-09-09T01:59:20;14.00;99.90
16313;DHT22;8265;52.622;13.296;2022-09-09T02:04:34;13.80;99.90
16313;DHT22;8265;52.622;13.296;2022-09-09T02:09:50;13.90;99.90
16313;DHT22;8265;52.622;13.296;2022-09-09T02:15:11;14.00;99.90
16313;DHT22;8265;52.622;13.296;2022-09-09T02:20:30;14.00;99.90
16313;DHT22;8265;52.622;13.296;2022-09-09T02:25:51;13.90;99.90
16313;DHT22;8265;52.622;13.296;2022-09-09T02:31:12;13.90;99.90
16313;DHT22;8265;52.622;13.296;2022-09-09T02:36:33;13.60;99.90
16313;DHT22;8265;52.622;13.296;2022-09-09T02:41:54;13.50;99.90
16313;DHT22;8265;52.622;13.296;2022-09-09T02:47:21;13.40;99.90
16313;DHT22;8265;52.622;13.296;2022-09-09T02:52:42;13.50;99.90
16313;DHT22;8265;52.622;13.296;2022-09-09T02:57:58;13.60;99.90
16313;DHT22;8265;52.622;13.296;2022-09-09T03:03:19;13.50;99.90
16313;DHT22;8265;52.622;13.296;2022-09-09T03:08:39;13.50;99.90
16313;DHT22;8265;52.622;13.296;2022-09-09T03:14:00;13.60;99.90
16313;DHT22;8265;52.622;13.296;2022-09-09T03:19:21;13.50;99.90
16313;DHT22;8265;52.622;13.296;2022-09-09T03:24:42;13.30;99.90
16313;DHT22;8265;52.622;13.296;2022-09-09T03:30:03;13.50;99.90
16313;DHT22;8265;52.622;13.296;2022-09-09T03:35:24;13.30;99.90
16313;DHT22;8265;52.622;13.296;2022-09-09T03:40:51;13.10;99.90
16313;DHT22;8265;52.622;13.296;2022-09-09T03:46:06;13.10;99.90
16313;DHT22;8265;52.622;13.296;2022-09-09T03:51:27;13.20;99.90
16313;DHT22;8265;52.622;13.296;2022-09-09T03:56:48;13.00;99.90
16313;DHT22;8265;52.622;13.296;2022-09-09T04:02:09;12.80;99.90
16313;DHT22;8265;52.622;13.296;2022-09-09T04:07:30;12.70;99.90
16313;DHT22;8265;52.622;13.296;2022-09-09T04:12:50;12.90;99.90
16313;DHT22;8265;52.622;13.296;2022-09-09T04:18:11;13.00;99.90
16313;DHT22;8265;52.622;13.296;2022-09-09T04:23:33;13.10;99.90
16313;DHT22;8265;52.622;13.296;2022-09-09T04:28:58;13.10;99.90
16313;DHT22;8265;52.622;13.296;2022-09-09T04:34:14;12.90;99.90
16313;DHT22;8265;52.622;13.296;2022-09-09T04:39:35;12.90;99.90
16313;DHT22;8265;52.622;13.296;2022-09-09T04:44:56;13.00;99.90
16313;DHT22;8265;52.622;13.296;2022-09-09T04:50:17;13.00;99.90
16313;DHT22;8265;52.622;13.296;2022-09-09T04:55:38;12.70;99.90
16313;DHT22;8265;52.622;13.296;2022-09-09T05:01:06;12.70;99.90
16313;DHT22;8265;52.622;13.296;2022-09-09T05:06:21;12.70;99.90
16313;DHT22;8265;52.622;13.296;2022-09-09T05:11:41;13.00;99.90
16313;DHT22;8265;52.622;13.296;2022-09-09T05:17:02;13.20;99.90
16313;DHT22;8265;52.622;13.296;2022-09-09T05:22:23;13.20;99.90
16313;DHT22;8265;52.622;13.296;2022-09-09T05:27:44;13.30;99.90
16313;DHT22;8265;52.622;13.296;2022-09-09T05:33:05;13.30;99.90
16313;DHT22;8265;52.622;13.296;2022-09-09T05:38:26;13.50;99.90
16313;DHT22;8265;52.622;13.296;2022-09-09T05:43:47;13.70;99.90
16313;DHT22;8265;52.622;13.296;2022-09-09T05:49:08;13.90;99.90
16313;DHT22;8265;52.622;13.296;2022-09-09T05:54:29;14.00;99.90
16313;DHT22;8265;52.622;13.296;2022-09-09T05:59:50;14.10;99.90
16313;DHT22;8265;52.622;13.296;2022-09-09T06:05:11;14.20;99.90
16313;DHT22;8265;52.622;13.296;2022-09-09T06:10:32;14.30;99.90
16313;DHT22;8265;52.622;13.296;2022-09-09T06:15:53;14.40;99.90
16313;DHT22;8265;52.622;13.296;2022-09-09T06:21:14;14.60;99.90
16313;DHT22;8265;52.622;13.296;2022-09-09T06:26:35;14.80;99.90
16313;DHT22;8265;52.622;13.296;2022-09-09T06:31:55;14.90;99.90
16313;DHT22;8265;52.622;13.296;2022-09-09T06:37:16;15.20;99.90
16313;DHT22;8265;52.622;13.296;2022-09-09T06:42:37;15.40;99.90
16313;DHT22;8265;52.622;13.296;2022-09-09T06:47:58;15.50;99.90
16313;DHT22;8265;52.622;13.296;2022-09-09T06:53:19;15.60;99.90
16313;DHT22;8265;52.622;13.296;2022-09-09T06:58:41;15.60;99.90
16313;DHT22;8265;52.622;13.296;2022-09-09T07:04:02;15.80;99.90
16313;DHT22;8265;52.622;13.296;2022-09-09T07:09:22;15.80;99.90
16313;DHT22;8265;52.622;13.296;2022-09-09T07:14:47;16.00;99.90
16313;DHT22;8265;52.622;13.296;2022-09-09T07:20:05;16.30;99.90
16313;DHT22;8265;52.622;13.296;2022-09-09T07:25:25;16.40;99.90
16313;DHT22;8265;52.622;13.296;2022-09-09T07:30:54;16.50;99.90
16313;DHT22;8265;52.622;13.296;2022-09-09T07:36:09;16.50;99.90
16313;DHT22;8265;52.622;13.296;2022-09-09T07:41:29;16.70;99.90
16313;DHT22;8265;52.622;13.296;2022-09-09T07:46:49;17.00;99.90
16313;DHT22;8265;52.622;13.296;2022-09-09T07:52:10;17.20;99.90
16313;DHT22;8265;52.622;13.296;2022-09-09T07:57:31;17.40;99.90
16313;DHT22;8265;52.622;13.296;2022-09-09T08:02:52;17.60;99.90
16313;DHT22;8265;52.622;13.296;2022-09-09T08:08:13;17.70;99.90
16313;DHT22;8265;52.622;13.296;2022-09-09T08:13:34;17.70;99.90
16313;DHT22;8265;52.622;13.296;2022-09-09T08:18:55;17.70;99.90
16313;DHT22;8265;52.622;13.296;2022-09-09T08:24:16;17.90;99.90
16313;DHT22;8265;52.622;13.296;2022-09-09T08:29:37;18.00;99.90
16313;DHT22;8265;52.622;13.296;2022-09-09T08:34:58;18.40;99.90
16313;DHT22;8265;52.622;13.296;2022-09-09T08:40:21;18.60;99.90
16313;DHT22;8265;52.622;13.296;2022-09-09T08:45:42;19.10;99.90
16313;DHT22;8265;52.622;13.296;2022-09-09T08:51:01;19.30;99.90
16313;DHT22;8265;52.622;13.296;2022-09-09T08:56:23;19.40;99.90
16313;DHT22;8265;52.622;13.296;2022-09-09T09:01:45;19.50;99.90
16313;DHT22;8265;52.622;13.296;2022-09-09T09:07:07;19.20;99.90
16313;DHT22;8265;52.622;13.296;2022-09-09T09:12:25;19.30;99.90
16313;DHT22;8265;52.622;13.296;2022-09-09T09:17:45;19.50;99.90
16313;DHT22;8265;52.622;13.296;2022-09-09T09:23:06;19.70;99.90
16313;DHT22;8265;52.622;13.296;2022-09-09T09:28:28;19.90;99.90
16313;DHT22;8265;52.622;13.296;2022-09-09T09:33:49;20.10;99.90
16313;DHT22;8265;52.622;13.296;2022-09-09T09:39:09;20.10;99.90
16313;DHT22;8265;52.622;13.296;2022-09-09T09:44:31;20.60;99.90
16313;DHT22;8265;52.622;13.296;2022-09-09T09:49:54;21.00;99.90
16313;DHT22;8265;52.622;13.296;2022-09-09T09:55:14;21.40;99.90
16313;DHT22;8265;52.622;13.296;2022-09-09T10:00:33;21.20;99.90
16313;DHT22;8265;52.622;13.296;2022-09-09T10:05:54;21.30;99.90
16313;DHT22;8265;52.622;13.296;2022-09-09T10:11:23;21.30;99.90
16313;DHT22;8265;52.622;13.296;2022-09-09T10:16:44;21.40;99.90
16313;DHT22;8265;52.622;13.296;2022-09-09T10:22:11;21.40;99.90
16313;DHT22;8265;52.622;13.296;2022-09-09T10:27:21;20.90;99.90
16313;DHT22;8265;52.622;13.296;2022-09-09T10:32:44;21.20;99.90
16313;DHT22;8265;52.622;13.296;2022-09-09T10:38:12;21.60;99.90
16313;DHT22;8265;52.622;13.296;2022-09-09T10:43:26;21.60;99.90
16313;DHT22;8265;52.622;13.296;2022-09-09T10:48:48;21.50;99.90
16313;DHT22;8265;52.622;13.296;2022-09-09T10:54:10;21.80;99.90
16313;DHT22;8265;52.622;13.296;2022-09-09T10:59:25;21.90;99.90
16313;DHT22;8265;52.622;13.296;2022-09-09T11:04:45;21.80;99.90
16313;DHT22;8265;52.622;13.296;2022-09-09T11:10:12;21.70;99.90
16313;DHT22;8265;52.622;13.296;2022-09-09T11:15:29;21.90;99.90
16313;DHT22;8265;52.622;13.296;2022-09-09T11:20:48;22.10;99.90
16313;DHT22;8265;52.622;13.296;2022-09-09T11:26:10;22.30;99.90
16313;DHT22;8265;52.622;13.296;2022-09-09T11:31:37;22.40;99.90
16313;DHT22;8265;52.622;13.296;2022-09-09T11:37:07;22.40;99.90
16313;DHT22;8265;52.622;13.296;2022-09-09T11:42:17;22.40;99.90
16313;DHT22;8265;52.622;13.296;2022-09-09T11:47:32;22.20;99.90
16313;DHT22;8265;52.622;13.296;2022-09-09T11:53:02;22.40;99.90
16313;DHT22;8265;52.622;13.296;2022-09-09T11:58:17;22.30;99.90
16313;DHT22;8265;52.622;13.296;2022-09-09T12:03:38;22.00;99.90
16313;DHT22;8265;52.622;13.296;2022-09-09T12:08:56;22.30;99.90
16313;DHT22;8265;52.622;13.296;2022-09-09T12:14:22;22.90;99.90
16313;DHT22;8265;52.622;13.296;2022-09-09T12:19:38;23.10;99.90
16313;DHT22;8265;52.622;13.296;2022-09-09T12:25:00;23.10;99.90
16313;DHT22;8265;52.622;13.296;2022-09-09T12:30:20;23.80;99.90
16313;DHT22;8265;52.622;13.296;2022-09-09T12:35:41;24.10;99.90
16313;DHT22;8265;52.622;13.296;2022-09-09T12:41:02;23.70;99.90
16313;DHT22;8265;52.622;13.296;2022-09-09T12:46:30;24.30;99.90
16313;DHT22;8265;52.622;13.296;2022-09-09T12:51:43;24.50;99.90
16313;DHT22;8265;52.622;13.296;2022-09-09T12:57:05;24.30;99.90
16313;DHT22;8265;52.622;13.296;2022-09-09T13:02:26;24.60;99.90
16313;DHT22;8265;52.622;13.296;2022-09-09T13:07:46;24.00;99.90
16313;DHT22;8265;52.622;13.296;2022-09-09T13:13:14;23.30;99.90
16313;DHT22;8265;52.622;13.296;2022-09-09T13:18:29;23.00;99.90
16313;DHT22;8265;52.622;13.296;2022-09-09T13:23:52;23.10;99.90
16313;DHT22;8265;52.622;13.296;2022-09-09T13:29:17;23.30;99.90
16313;DHT22;8265;52.622;13.296;2022-09-09T13:34:32;23.20;99.90
16313;DHT22;8265;52.622;13.296;2022-09-09T13:39:53;23.30;99.90
16313;DHT22;8265;52.622;13.296;2022-09-09T13:45:17;23.20;99.90
16313;DHT22;8265;52.622;13.296;2022-09-09T13:50:35;23.00;99.90
16313;DHT22;8265;52.622;13.296;2022-09-09T13:55:55;22.80;99.90
16313;DHT22;8265;52.622;13.296;2022-09-09T14:01:16;22.70;99.90
16313;DHT22;8265;52.622;13.296;2022-09-09T14:06:37;22.60;99.90
16313;DHT22;8265;52.622;13.296;2022-09-09T14:11:58;22.70;99.90
16313;DHT22;8265;52.622;13.296;2022-09-09T14:17:19;22.60;99.90
16313;DHT22;8265;52.622;13.296;2022-09-09T14:22:40;22.50;99.90
16313;DHT22;8265;52.622;13.296;2022-09-09T14:28:01;22.80;99.90
16313;DHT22;8265;52.622;13.296;2022-09-09T14:33:22;23.60;99.90
16313;DHT22;8265;52.622;13.296;2022-09-09T14:38:43;24.80;99.90
16313;DHT22;8265;52.622;13.296;2022-09-09T14:44:04;25.10;99.90
16313;DHT22;8265;52.622;13.296;2022-09-09T14:49:25;24.80;99.90
16313;DHT22;8265;52.622;13.296;2022-09-09T14:54:46;25.20;99.90
16313;DHT22;8265;52.622;13.296;2022-09-09T15:00:09;25.50;99.90
16313;DHT22;8265;52.622;13.296;2022-09-09T15:05:28;25.60;99.90
16313;DHT22;8265;52.622;13.296;2022-09-09T15:10:49;25.10;99.90
16313;DHT22;8265;52.622;13.296;2022-09-09T15:16:11;24.60;99.90
16313;DHT22;8265;52.622;13.296;2022-09-09T15:21:31;24.40;99.90
16313;DHT22;8265;52.622;13.296;2022-09-09T15:26:52;24.40;99.90
16313;DHT22;8265;52.622;13.296;2022-09-09T15:32:12;24.50;99.90
16313;DHT22;8265;52.622;13.296;2022-09-09T15:37:33;24.40;99.90
16313;DHT22;8265;52.622;13.296;2022-09-09T15:42:54;23.90;99.90
16313;DHT22;8265;52.622;13.296;2022-09-09T15:48:15;23.30;99.90
16313;DHT22;8265;52.622;13.296;2022-09-09T15:53:36;22.60;99.90
16313;DHT22;8265;52.622;13.296;2022-09-09T15:58:58;22.30;99.90
16313;DHT22;8265;52.622;13.296;2022-09-09T16:04:18;22.10;99.90
16313;DHT22;8265;52.622;13.296;2022-09-09T16:09:39;21.90;99.90
16313;DHT22;8265;52.622;13.296;2022-09-09T16:15:00;21.60;99.90
16313;DHT22;8265;52.622;13.296;2022-09-09T16:20:21;21.40;99.90
16313;DHT22;8265;52.622;13.296;2022-09-09T16:25:42;21.20;99.90
16313;DHT22;8265;52.622;13.296;2022-09-09T16:31:05;20.90;99.90
16313;DHT22;8265;52.622;13.296;2022-09-09T16:36:25;20.40;99.90
16313;DHT22;8265;52.622;13.296;2022-09-09T16:41:45;20.20;99.90
16313;DHT22;8265;52.622;13.296;2022-09-09T16:47:06;19.90;99.90
16313;DHT22;8265;52.622;13.296;2022-09-09T16:52:27;19.90;99.90
16313;DHT22;8265;52.622;13.296;2022-09-09T16:57:48;19.60;99.90
16313;DHT22;8265;52.622;13.296;2022-09-09T17:03:19;19.20;99.90
16313;DHT22;8265;52.622;13.296;2022-09-09T17:08:30;19.00;99.90
16313;DHT22;8265;52.622;13.296;2022-09-09T17:13:51;18.90;99.90
16313;DHT22;8265;52.622;13.296;2022-09-09T17:19:12;18.70;99.90
16313;DHT22;8265;52.622;13.296;2022-09-09T17:24:33;18.50;99.90
16313;DHT22;8265;52.622;13.296;2022-09-09T17:29:54;18.30;99.90
16313;DHT22;8265;52.622;13.296;2022-09-09T17:35:15;18.20;99.90
16313;DHT22;8265;52.622;13.296;2022-09-09T17:40:35;18.20;99.90
16313;DHT22;8265;52.622;13.296;2022-09-09T17:45:56;18.00;99.90
16313;DHT22;8265;52.622;13.296;2022-09-09T17:51:18;17.90;99.90
16313;DHT22;8265;52.622;13.296;2022-09-09T17:56:38;17.80;99.90
16313;DHT22;8265;52.622;13.296;2022-09-09T18:01:59;17.60;99.90
16313;DHT22;8265;52.622;13.296;2022-09-09T18:07:20;17.30;99.90
16313;DHT22;8265;52.622;13.296;2022-09-09T18:12:41;17.30;99.90
16313;DHT22;8265;52.622;13.296;2022-09-09T18:18:02;17.30;99.90
16313;DHT22;8265;52.622;13.296;2022-09-09T18:23:23;17.30;99.90
16313;DHT22;8265;52.622;13.296;2022-09-09T18:28:46;17.20;99.90
16313;DHT22;8265;52.622;13.296;2022-09-09T18:34:06;17.30;99.90
16313;DHT22;8265;52.622;13.296;2022-09-09T18:39:27;17.30;99.90
16313;DHT22;8265;52.622;13.296;2022-09-09T18:44:48;17.20;99.90
16313;DHT22;8265;52.622;13.296;2022-09-09T18:50:10;17.10;99.90
16313;DHT22;8265;52.622;13.296;2022-09-09T18:55:29;17.00;99.90
16313;DHT22;8265;52.622;13.296;2022-09-09T19:00:50;16.90;99.90
16313;DHT22;8265;52.622;13.296;2022-09-09T19:06:12;16.70;99.90
16313;DHT22;8265;52.622;13.296;2022-09-09T19:11:32;16.60;99.90
16313;DHT22;8265;52.622;13.296;2022-09-09T19:16:53;16.60;99.90
16313;DHT22;8265;52.622;13.296;2022-09-09T19:22:14;16.70;99.90
16313;DHT22;8265;52.622;13.296;2022-09-09T19:27:35;16.70;99.90
16313;DHT22;8265;52.622;13.296;2022-09-09T19:32:56;16.60;99.90
16313;DHT22;8265;52.622;13.296;2022-09-09T19:38:17;16.60;99.90
16313;DHT22;8265;52.622;13.296;2022-09-09T19:43:38;16.70;99.90
16313;DHT22;8265;52.622;13.296;2022-09-09T19:48:58;16.80;99.90
16313;DHT22;8265;52.622;13.296;2022-09-09T19:54:20;16.80;99.90
16313;DHT22;8265;52.622;13.296;2022-09-09T19:59:40;16.70;99.90
16313;DHT22;8265;52.622;13.296;2022-09-09T20:05:01;16.60;99.90
16313;DHT22;8265;52.622;13.296;2022-09-09T20:10:22;16.40;99.90
16313;DHT22;8265;52.622;13.296;2022-09-09T20:15:43;16.20;99.90
16313;DHT22;8265;52.622;13.296;2022-09-09T20:21:05;16.20;99.90
16313;DHT22;8265;52.622;13.296;2022-09-09T20:26:25;16.10;99.90
16313;DHT22;8265;52.622;13.296;2022-09-09T20:31:46;16.10;99.90
16313;DHT22;8265;52.622;13.296;2022-09-09T20:37:07;16.20;99.90
16313;DHT22;8265;52.622;13.296;2022-09-09T20:42:28;16.30;99.90
16313;DHT22;8265;52.622;13.296;2022-09-09T20:47:49;16.40;99.90
16313;DHT22;8265;52.622;13.296;2022-09-09T20:53:10;16.40;99.90
16313;DHT22;8265;52.622;13.296;2022-09-09T20:58:31;16.40;99.90
16313;DHT22;8265;52.622;13.296;2022-09-09T21:03:52;16.30;99.90
16313;DHT22;8265;52.622;13.296;2022-09-09T21:09:13;16.20;99.90
16313;DHT22;8265;52.622;13.296;2022-09-09T21:14:34;16.20;99.90
16313;DHT22;8265;52.622;13.296;2022-09-09T21:19:55;16.20;99.90
16313;DHT22;8265;52.622;13.296;2022-09-09T21:25:16;16.10;99.90
16313;DHT22;8265;52.622;13.296;2022-09-09T21:30:37;16.10;99.90
16313;DHT22;8265;52.622;13.296;2022-09-09T21:36:07;16.00;99.90
16313;DHT22;8265;52.622;13.296;2022-09-09T21:41:19;15.80;99.90
16313;DHT22;8265;52.622;13.296;2022-09-09T21:46:40;15.60;99.90
16313;DHT22;8265;52.622;13.296;2022-09-09T21:52:01;15.50;99.90
16313;DHT22;8265;52.622;13.296;2022-09-09T21:57:22;15.50;99.90
16313;DHT22;8265;52.622;13.296;2022-09-09T22:02:43;15.30;99.90
16313;DHT22;8265;52.622;13.296;2022-09-09T22:08:04;15.30;99.90
16313;DHT22;8265;52.622;13.296;2022-09-09T22:13:25;15.50;99.90
16313;DHT22;8265;52.622;13.296;2022-09-09T22:18:48;15.70;99.90
16313;DHT22;8265;52.622;13.296;2022-09-09T22:24:07;15.60;99.90
16313;DHT22;8265;52.622;13.296;2022-09-09T22:29:28;15.50;99.90
16313;DHT22;8265;52.622;13.296;2022-09-09T22:34:48;15.40;99.90
16313;DHT22;8265;52.622;13.296;2022-09-09T22:40:10;15.40;99.90
16313;DHT22;8265;52.622;13.296;2022-09-09T22:45:31;15.30;99.90
16313;DHT22;8265;52.622;13.296;2022-09-09T22:50:51;15.20;99.90
16313;DHT22;8265;52.622;13.296;2022-09-09T22:56:13;15.00;99.90
16313;DHT22;8265;52.622;13.296;2022-09-09T23:01:33;15.00;99.90
16313;DHT22;8265;52.622;13.296;2022-09-09T23:06:54;14.90;99.90
16313;DHT22;8265;52.622;13.296;2022-09-09T23:12:15;14.70;99.90
16313;DHT22;8265;52.622;13.296;2022-09-09T23:17:36;14.80;99.90
16313;DHT22;8265;52.622;13.296;2022-09-09T23:22:57;14.80;99.90
16313;DHT22;8265;52.622;13.296;2022-09-09T23:28:18;14.70;99.90
16313;DHT22;8265;52.622;13.296;2022-09-09T23:30:44;14.60;99.90
16313;DHT22;8265;52.622;13.296;2022-09-09T23:36:06;14.50;99.90
16313;DHT22;8265;52.622;13.296;2022-09-09T23:41:26;14.40;99.90
16313;DHT22;8265;52.622;13.296;2022-09-09T23:46:47;14.40;99.90
16313;DHT22;8265;52.622;13.296;2022-09-09T23:52:08;14.40;99.90
16313;DHT22;8265;52.622;13.296;2022-09-09T23:57:29;14.40;99.90
